createdAt,value
2023-03-30T00:02:20.242Z,17.03
2023-03-30T00:04:50.116Z,17.27
2023-03-30T00:07:20.304Z,17.20
2023-03-30T00:09:49.981Z,17.10
2023-03-30T00:12:22.296Z,17.39
2023-03-30T00:14:55.518Z,17.00
2023-03-30T00:17:25.652Z,16.75
2023-03-30T00:19:55.357Z,16.62
2023-03-30T00:22:25.044Z,16.83
2023-03-30T00:24:54.707Z,16.82
2023-03-30T00:27:24.405Z,17.16
2023-03-30T00:29:54.092Z,17.31
2023-03-30T00:32:23.865Z,17.10
2023-03-30T00:34:56.483Z,16.77
2023-03-30T00:37:44.865Z,17.18
2023-03-30T00:40:22.404Z,17.17
2023-03-30T00:43:00.697Z,17.51
2023-03-30T00:45:32.426Z,17.40
2023-03-30T00:48:13.383Z,17.08
2023-03-30T00:51:04.006Z,16.86
2023-03-30T00:53:38.189Z,17.23
2023-03-30T00:56:09.192Z,17.32
2023-03-30T00:58:40.276Z,17.19
2023-03-30T01:01:11.918Z,17.50
2023-03-30T01:03:52.268Z,17.18
2023-03-30T01:06:25.812Z,17.10
2023-03-30T01:08:56.700Z,17.07
2023-03-30T01:11:35.154Z,17.00
2023-03-30T01:14:09.673Z,17.03
2023-03-30T01:16:51.946Z,16.90
2023-03-30T01:19:49.823Z,16.88
2023-03-30T01:22:46.565Z,16.90
2023-03-30T01:25:31.277Z,16.98
2023-03-30T01:28:03.830Z,16.96
2023-03-30T01:30:51.805Z,17.16
2023-03-30T01:33:52.211Z,17.75
2023-03-30T01:36:59.568Z,18.01
2023-03-30T01:39:35.306Z,18.25
2023-03-30T01:42:20.611Z,18.04
2023-03-30T01:45:13.638Z,18.42
2023-03-30T01:47:56.308Z,18.48
2023-03-30T01:50:36.221Z,18.69
2023-03-30T01:53:11.882Z,18.56
2023-03-30T01:56:05.389Z,18.67
2023-03-30T01:58:51.249Z,18.73
2023-03-30T02:01:22.241Z,18.75
2023-03-30T02:04:00.413Z,19.01
2023-03-30T02:06:32.003Z,19.08
2023-03-30T02:09:04.741Z,18.97
2023-03-30T02:11:34.385Z,18.99
2023-03-30T02:14:04.438Z,18.92
2023-03-30T02:16:36.827Z,19.15
2023-03-30T02:19:09.390Z,19.05
2023-03-30T02:21:39.906Z,18.97
2023-03-30T02:24:19.137Z,19.04
2023-03-30T02:26:52.430Z,19.21
2023-03-30T02:29:22.724Z,19.05
2023-03-30T02:31:53.611Z,19.12
2023-03-30T02:34:23.286Z,19.22
2023-03-30T02:37:13.409Z,19.55
2023-03-30T02:39:57.871Z,19.46
2023-03-30T02:42:30.595Z,19.34
2023-03-30T02:45:13.432Z,19.40
2023-03-30T02:48:27.564Z,19.49
2023-03-30T02:51:27.729Z,19.52
2023-03-30T02:53:57.697Z,19.67
2023-03-30T02:56:31.545Z,19.62
2023-03-30T02:59:11.099Z,20.09
2023-03-30T03:01:43.386Z,20.45
2023-03-30T03:04:17.128Z,20.72
2023-03-30T03:06:50.016Z,20.79
2023-03-30T03:09:20.601Z,21.33
2023-03-30T03:11:53.744Z,20.81
2023-03-30T03:14:23.897Z,20.67
2023-03-30T03:16:53.670Z,20.92
2023-03-30T03:19:23.567Z,21.91
2023-03-30T03:21:53.379Z,22.41
2023-03-30T03:24:23.921Z,22.39
2023-03-30T03:26:53.735Z,22.75
2023-03-30T03:29:26.200Z,23.39
2023-03-30T03:31:56.313Z,23.48
2023-03-30T03:34:28.144Z,23.34
2023-03-30T03:37:01.378Z,23.89
2023-03-30T03:39:34.174Z,23.67
2023-03-30T03:42:06.188Z,23.94
2023-03-30T03:44:35.983Z,23.69
2023-03-30T03:47:05.737Z,24.13
2023-03-30T03:49:41.293Z,24.18
2023-03-30T03:52:12.377Z,23.95
2023-03-30T03:54:42.101Z,24.02
2023-03-30T03:57:12.110Z,23.12
2023-03-30T03:59:44.948Z,23.44
2023-03-30T04:02:17.508Z,23.32
2023-03-30T04:04:47.552Z,23.56
2023-03-30T04:07:17.600Z,23.28
2023-03-30T04:09:47.566Z,23.03
2023-03-30T04:12:20.708Z,22.78
2023-03-30T04:14:59.935Z,22.74
2023-03-30T04:17:32.643Z,22.30
2023-03-30T04:20:04.061Z,22.48
2023-03-30T04:22:54.278Z,22.22
2023-03-30T04:25:30.398Z,22.50
2023-03-30T04:27:59.605Z,22.81
2023-03-30T04:30:32.100Z,23.09
2023-03-30T04:33:05.333Z,22.88
2023-03-30T04:35:35.596Z,22.73
2023-03-30T04:38:05.500Z,22.65
2023-03-30T04:40:38.300Z,22.12
2023-03-30T04:43:08.670Z,22.25
2023-03-30T04:45:38.553Z,22.45
2023-03-30T04:48:08.515Z,22.71
2023-03-30T04:50:40.689Z,22.54
2023-03-30T04:53:10.564Z,22.65
2023-03-30T04:55:40.598Z,22.68
2023-03-30T04:58:12.003Z,22.75
2023-03-30T05:00:47.035Z,22.92
2023-03-30T05:03:17.074Z,23.39
2023-03-30T05:05:47.106Z,23.58
2023-03-30T05:08:16.867Z,24.24
2023-03-30T05:10:46.577Z,24.58
2023-03-30T05:13:17.165Z,24.76
2023-03-30T05:15:57.292Z,24.91
2023-03-30T05:18:27.126Z,24.29
2023-03-30T05:21:00.246Z,23.98
2023-03-30T05:23:30.210Z,23.21
2023-03-30T05:25:59.923Z,23.28
2023-03-30T05:28:31.141Z,23.13
2023-03-30T05:31:02.510Z,23.73
2023-03-30T05:33:33.398Z,23.73
2023-03-30T05:36:03.209Z,23.13
2023-03-30T05:38:33.024Z,22.59
2023-03-30T05:41:08.650Z,22.69
2023-03-30T05:43:42.104Z,22.60
2023-03-30T05:46:11.863Z,22.42
2023-03-30T05:48:41.613Z,22.44
2023-03-30T05:51:11.717Z,22.64
2023-03-30T05:53:41.474Z,22.44
2023-03-30T05:56:12.048Z,22.13
2023-03-30T05:58:41.718Z,22.31
2023-03-30T06:01:12.095Z,22.27
2023-03-30T06:03:42.141Z,22.48
2023-03-30T06:06:12.486Z,22.74
2023-03-30T06:08:43.431Z,22.71
2023-03-30T06:11:14.207Z,22.81
2023-03-30T06:13:44.311Z,22.78
2023-03-30T06:16:14.116Z,22.56
2023-03-30T06:18:43.802Z,23.04
2023-03-30T06:21:13.870Z,23.25
2023-03-30T06:23:44.170Z,22.91
2023-03-30T06:26:13.872Z,22.89
2023-03-30T06:28:43.701Z,23.19
2023-03-30T06:31:13.745Z,22.87
2023-03-30T06:33:43.573Z,22.65
2023-03-30T06:36:16.855Z,22.68
2023-03-30T06:38:46.617Z,22.75
2023-03-30T06:41:16.924Z,22.62
2023-03-30T06:43:46.541Z,22.63
2023-03-30T06:46:17.058Z,22.66
2023-03-30T06:48:46.963Z,22.54
2023-03-30T06:51:16.690Z,22.61
2023-03-30T06:53:46.476Z,22.32
2023-03-30T06:56:16.105Z,22.16
2023-03-30T06:58:47.238Z,22.46
2023-03-30T07:01:17.573Z,22.33
2023-03-30T07:03:47.460Z,21.97
2023-03-30T07:06:18.717Z,22.43
2023-03-30T07:08:49.870Z,22.13
2023-03-30T07:11:20.102Z,22.27
2023-03-30T07:13:49.846Z,22.21
2023-03-30T07:16:19.594Z,22.14
2023-03-30T07:18:49.467Z,22.09
2023-03-30T07:21:19.353Z,22.20
2023-03-30T07:23:48.980Z,22.36
2023-03-30T07:26:19.007Z,22.45
2023-03-30T07:28:48.647Z,22.18
2023-03-30T07:31:18.711Z,22.31
2023-03-30T07:33:48.426Z,22.19
2023-03-30T07:36:18.446Z,22.13
2023-03-30T07:38:48.433Z,21.84
2023-03-30T07:41:19.372Z,21.69
2023-03-30T07:43:49.003Z,21.90
2023-03-30T07:46:18.768Z,21.87
2023-03-30T07:48:48.488Z,21.75
2023-03-30T07:51:18.518Z,21.80
2023-03-30T07:53:50.336Z,21.67
2023-03-30T07:56:20.074Z,21.94
2023-03-30T07:58:49.803Z,21.82
2023-03-30T08:01:19.918Z,21.81
2023-03-30T08:03:50.001Z,21.70
2023-03-30T08:06:19.717Z,21.69
2023-03-30T08:08:49.412Z,21.25
2023-03-30T08:11:19.244Z,21.39
2023-03-30T08:13:48.952Z,21.56
2023-03-30T08:16:18.663Z,21.43
2023-03-30T08:18:48.859Z,21.54
2023-03-30T08:21:19.464Z,21.72
2023-03-30T08:23:49.140Z,21.28
2023-03-30T08:26:19.596Z,21.36
2023-03-30T08:28:49.248Z,21.66
2023-03-30T08:31:19.752Z,21.55
2023-03-30T08:33:50.016Z,21.38
2023-03-30T08:36:21.770Z,21.52
2023-03-30T08:38:51.983Z,21.66
2023-03-30T08:41:30.632Z,21.23
2023-03-30T08:44:04.047Z,21.49
2023-03-30T08:46:33.724Z,21.39
2023-03-30T08:49:04.120Z,21.44
2023-03-30T08:51:34.782Z,21.54
2023-03-30T08:54:07.122Z,21.68
2023-03-30T08:57:04.923Z,21.54
2023-03-30T08:59:55.498Z,21.71
2023-03-30T09:02:37.564Z,21.81
2023-03-30T09:05:34.050Z,21.72
2023-03-30T09:08:16.347Z,21.26
2023-03-30T09:10:47.919Z,21.67
2023-03-30T09:13:19.439Z,21.66
2023-03-30T09:15:54.437Z,21.45
2023-03-30T09:18:33.820Z,21.54
2023-03-30T09:21:04.921Z,21.59
2023-03-30T09:23:35.505Z,21.46
2023-03-30T09:26:37.948Z,21.47
2023-03-30T09:29:20.124Z,21.34
2023-03-30T09:32:16.892Z,21.42
2023-03-30T09:34:49.127Z,21.83
2023-03-30T09:37:20.320Z,21.65
2023-03-30T09:39:50.143Z,21.34
2023-03-30T09:42:40.925Z,21.44
2023-03-30T09:45:22.536Z,21.40
2023-03-30T09:47:52.462Z,21.48
2023-03-30T09:50:26.041Z,21.41
2023-03-30T09:53:09.288Z,21.56
2023-03-30T09:55:39.697Z,21.41
2023-03-30T09:58:30.732Z,21.24
2023-03-30T10:01:18.245Z,21.39
2023-03-30T10:03:49.197Z,21.22
2023-03-30T10:06:20.330Z,21.36
2023-03-30T10:08:54.970Z,21.29
2023-03-30T10:11:38.802Z,21.47
2023-03-30T10:14:09.343Z,21.45
2023-03-30T10:16:39.103Z,21.42
2023-03-30T10:19:18.308Z,21.51
2023-03-30T10:21:48.492Z,21.38
2023-03-30T10:24:18.116Z,21.49
2023-03-30T10:26:48.278Z,21.26
2023-03-30T10:29:22.733Z,21.42
2023-03-30T10:32:22.990Z,21.14
2023-03-30T10:35:01.687Z,21.25
2023-03-30T10:37:33.107Z,21.26
2023-03-30T10:40:04.858Z,21.55
2023-03-30T10:42:34.876Z,21.27
2023-03-30T10:45:06.704Z,21.14
2023-03-30T10:47:54.467Z,21.59
2023-03-30T10:50:34.366Z,21.44
2023-03-30T10:53:13.889Z,21.54
2023-03-30T10:55:51.482Z,21.40
2023-03-30T10:58:50.808Z,21.44
2023-03-30T11:01:40.124Z,21.39
2023-03-30T11:04:23.257Z,21.68
2023-03-30T11:06:55.031Z,21.44
2023-03-30T11:09:29.353Z,21.43
2023-03-30T11:12:15.233Z,21.51
2023-03-30T11:15:01.841Z,21.60
2023-03-30T11:17:40.298Z,21.64
2023-03-30T11:20:34.199Z,21.50
2023-03-30T11:23:06.277Z,21.65
2023-03-30T11:25:55.942Z,21.63
2023-03-30T11:28:46.748Z,21.68
2023-03-30T11:31:44.595Z,21.68
2023-03-30T11:34:21.946Z,21.53
2023-03-30T11:37:16.833Z,21.46
2023-03-30T11:39:59.312Z,21.22
2023-03-30T11:42:34.873Z,21.46
2023-03-30T11:45:06.935Z,21.64
2023-03-30T11:47:48.826Z,21.76
2023-03-30T11:53:29.709Z,21.82
2023-03-30T11:57:09.554Z,21.68
2023-03-30T11:59:39.521Z,21.71
2023-03-30T12:02:27.660Z,21.85
2023-03-30T12:05:13.417Z,21.65
2023-03-30T12:07:52.960Z,21.73
2023-03-30T12:10:44.363Z,21.67
2023-03-30T12:13:18.317Z,21.81
2023-03-30T12:15:51.693Z,21.72
2023-03-30T12:18:59.633Z,21.78
2023-03-30T12:21:36.060Z,21.84
2023-03-30T12:24:41.615Z,21.69
2023-03-30T12:27:12.517Z,21.70
2023-03-30T12:32:29.251Z,21.78
2023-03-30T12:34:59.697Z,21.81
2023-03-30T12:37:36.817Z,21.64
2023-03-30T12:40:11.122Z,21.73
2023-03-30T12:42:47.652Z,21.78
2023-03-30T12:45:25.192Z,21.70
2023-03-30T12:48:08.581Z,21.64
2023-03-30T12:50:45.823Z,21.76
2023-03-30T12:53:39.252Z,21.50
2023-03-30T12:56:27.983Z,21.62
2023-03-30T12:59:18.813Z,21.70
2023-03-30T13:02:11.341Z,21.48
2023-03-30T13:04:41.847Z,21.72
2023-03-30T13:07:17.748Z,21.62
2023-03-30T13:10:32.767Z,21.59
2023-03-30T13:13:06.501Z,21.50
2023-03-30T13:15:51.264Z,21.63
2023-03-30T13:18:21.456Z,21.77
2023-03-30T13:20:51.617Z,21.58
2023-03-30T13:23:25.006Z,21.84
2023-03-30T13:26:07.999Z,21.54
2023-03-30T13:28:59.456Z,21.56
2023-03-30T13:31:36.009Z,21.48
2023-03-30T13:34:34.229Z,21.69
2023-03-30T13:37:14.550Z,21.59
2023-03-30T13:39:54.308Z,21.50
2023-03-30T13:42:50.502Z,21.51
2023-03-30T13:45:49.454Z,21.64
2023-03-30T13:48:27.676Z,21.51
2023-03-30T13:51:02.660Z,21.62
2023-03-30T13:53:40.114Z,21.43
2023-03-30T13:56:13.294Z,21.44
2023-03-30T13:58:44.505Z,21.74
2023-03-30T14:01:16.405Z,21.70
2023-03-30T14:04:07.710Z,21.62
2023-03-30T14:06:39.992Z,21.58
2023-03-30T14:09:21.312Z,21.65
2023-03-30T14:12:07.501Z,21.56
2023-03-30T14:14:48.552Z,21.62
2023-03-30T14:17:25.545Z,21.95
2023-03-30T14:20:07.844Z,21.58
2023-03-30T14:22:42.190Z,21.72
2023-03-30T14:25:43.000Z,21.78
2023-03-30T14:28:16.709Z,21.70
2023-03-30T14:31:06.123Z,21.79
2023-03-30T14:33:44.175Z,21.51
2023-03-30T14:36:21.684Z,21.80
2023-03-30T14:38:57.137Z,21.63
2023-03-30T14:41:33.119Z,21.85
2023-03-30T14:44:08.360Z,21.80
2023-03-30T14:46:53.372Z,21.87
2023-03-30T14:49:33.052Z,21.91
2023-03-30T14:52:04.369Z,21.72
2023-03-30T14:54:38.261Z,21.92
2023-03-30T14:57:11.119Z,21.87
2023-03-30T14:59:49.528Z,21.94
2023-03-30T15:02:35.710Z,21.75
2023-03-30T15:05:05.406Z,21.85
2023-03-30T15:07:44.470Z,21.80
2023-03-30T15:10:28.214Z,21.80
2023-03-30T15:12:59.839Z,21.80
2023-03-30T15:15:38.704Z,21.83
2023-03-30T15:18:09.469Z,21.75
2023-03-30T15:20:41.640Z,22.41
2023-03-30T15:23:17.175Z,22.15
2023-03-30T15:25:46.358Z,22.06
2023-03-30T15:28:23.925Z,22.03
2023-03-30T15:31:00.223Z,22.05
2023-03-30T15:33:48.378Z,22.12
2023-03-30T15:36:24.453Z,22.30
2023-03-30T15:39:03.048Z,22.18
2023-03-30T15:41:48.851Z,21.81
2023-03-30T15:44:23.611Z,21.99
2023-03-30T15:47:06.162Z,22.13
2023-03-30T15:49:47.347Z,22.15
2023-03-30T15:52:28.278Z,22.30
2023-03-30T15:55:00.987Z,22.09
2023-03-30T15:57:32.390Z,22.16
2023-03-30T16:00:10.948Z,22.19
2023-03-30T16:02:54.552Z,22.15
2023-03-30T16:08:00.385Z,22.32
2023-03-30T16:10:34.700Z,22.33
2023-03-30T16:13:04.482Z,22.17
2023-03-30T16:15:36.051Z,22.33
2023-03-30T16:18:10.152Z,22.53
2023-03-30T16:20:44.569Z,22.60
2023-03-30T16:23:18.068Z,22.64
2023-03-30T16:25:48.614Z,22.61
2023-03-30T16:28:20.899Z,22.69
2023-03-30T16:30:54.054Z,22.62
2023-03-30T16:33:28.873Z,22.76
2023-03-30T16:35:59.599Z,22.50
2023-03-30T16:38:31.838Z,22.53
2023-03-30T16:41:02.384Z,22.56
2023-03-30T16:43:34.635Z,22.66
2023-03-30T16:46:05.300Z,22.35
2023-03-30T16:48:35.588Z,22.66
2023-03-30T16:51:05.553Z,22.66
2023-03-30T16:53:36.406Z,22.63
2023-03-30T16:56:06.987Z,22.58
2023-03-30T16:58:36.925Z,22.47
2023-03-30T17:01:08.445Z,22.40
2023-03-30T17:03:38.411Z,22.62
2023-03-30T17:06:09.736Z,22.63
2023-03-30T17:08:42.799Z,22.54
2023-03-30T17:11:14.910Z,22.81
2023-03-30T17:13:45.166Z,22.71
2023-03-30T17:16:15.751Z,22.64
2023-03-30T17:18:45.738Z,22.79
2023-03-30T17:21:18.369Z,22.67
2023-03-30T17:23:49.193Z,22.74
2023-03-30T17:26:19.006Z,22.74
2023-03-30T17:28:48.728Z,22.85
2023-03-30T17:31:22.565Z,22.93
2023-03-30T17:33:52.422Z,22.97
2023-03-30T17:36:26.012Z,22.94
2023-03-30T17:38:56.029Z,22.84
2023-03-30T17:41:25.989Z,23.07
2023-03-30T17:43:55.681Z,22.84
2023-03-30T17:46:25.695Z,23.01
2023-03-30T17:48:55.509Z,22.95
2023-03-30T17:51:25.206Z,22.90
2023-03-30T17:53:54.994Z,22.94
2023-03-30T17:56:24.629Z,22.90
2023-03-30T17:58:54.686Z,22.97
2023-03-30T18:01:24.370Z,23.00
2023-03-30T18:03:54.123Z,22.86
2023-03-30T18:06:23.758Z,23.01
2023-03-30T18:08:54.502Z,22.96
2023-03-30T18:11:24.156Z,22.89
2023-03-30T18:13:53.971Z,22.98
2023-03-30T18:16:25.915Z,23.09
2023-03-30T18:18:57.838Z,22.97
2023-03-30T18:21:28.692Z,23.11
2023-03-30T18:23:58.499Z,23.00
2023-03-30T18:26:28.649Z,22.95
2023-03-30T18:28:58.307Z,23.20
2023-03-30T18:31:27.944Z,22.98
2023-03-30T18:33:57.722Z,23.24
2023-03-30T18:36:27.374Z,23.15
2023-03-30T18:38:57.414Z,23.15
2023-03-30T18:41:27.473Z,23.12
2023-03-30T18:43:58.305Z,23.15
2023-03-30T18:46:28.134Z,22.87
2023-03-30T18:48:57.831Z,23.22
2023-03-30T18:51:27.525Z,23.28
2023-03-30T18:53:58.280Z,23.16
2023-03-30T18:56:28.831Z,23.22
2023-03-30T18:59:00.012Z,22.99
2023-03-30T19:01:29.693Z,23.14
2023-03-30T19:03:59.383Z,23.16
2023-03-30T19:06:29.989Z,23.30
2023-03-30T19:09:00.337Z,23.19
2023-03-30T19:11:30.063Z,23.23
2023-03-30T19:14:01.979Z,23.15
2023-03-30T19:16:31.799Z,23.13
2023-03-30T19:19:01.760Z,23.29
2023-03-30T19:21:31.365Z,23.16
2023-03-30T19:24:00.977Z,23.16
2023-03-30T19:26:30.649Z,23.03
2023-03-30T19:29:00.280Z,23.19
2023-03-30T19:31:33.092Z,23.03
2023-03-30T19:34:02.746Z,23.15
2023-03-30T19:36:32.858Z,23.32
2023-03-30T19:39:02.902Z,23.15
2023-03-30T19:41:32.598Z,23.09
2023-03-30T19:44:02.408Z,23.27
2023-03-30T19:46:32.236Z,23.35
2023-03-30T19:49:02.242Z,23.38
2023-03-30T19:51:32.275Z,23.23
2023-03-30T19:54:02.102Z,23.27
2023-03-30T19:56:31.853Z,23.39
2023-03-30T19:59:01.499Z,23.34
2023-03-30T20:01:31.318Z,23.33
2023-03-30T20:04:01.222Z,23.46
2023-03-30T20:06:31.580Z,23.45
2023-03-30T20:09:01.236Z,23.41
2023-03-30T20:11:31.174Z,23.41
2023-03-30T20:14:01.932Z,23.48
2023-03-30T20:16:31.707Z,23.35
2023-03-30T20:19:03.843Z,23.49
2023-03-30T20:21:33.978Z,23.35
2023-03-30T20:24:03.570Z,23.52
2023-03-30T20:26:34.399Z,23.42
2023-03-30T20:29:04.074Z,23.48
2023-03-30T20:31:33.894Z,23.41
2023-03-30T20:34:03.606Z,23.48
2023-03-30T20:36:33.453Z,23.50
2023-03-30T20:39:03.145Z,23.54
2023-03-30T20:41:39.422Z,23.56
2023-03-30T20:44:12.816Z,23.57
2023-03-30T20:46:44.848Z,23.57
2023-03-30T20:49:14.918Z,23.52
2023-03-30T20:51:46.626Z,23.63
2023-03-30T20:54:16.301Z,23.50
2023-03-30T20:56:46.087Z,23.64
2023-03-30T20:59:15.785Z,23.46
2023-03-30T21:01:47.274Z,23.70
2023-03-30T21:04:17.070Z,23.56
2023-03-30T21:06:47.644Z,23.61
2023-03-30T21:09:19.428Z,23.64
2023-03-30T21:11:49.165Z,23.60
2023-03-30T21:14:18.821Z,23.87
2023-03-30T21:16:48.613Z,23.68
2023-03-30T21:19:18.397Z,23.54
2023-03-30T21:21:48.391Z,23.58
2023-03-30T21:24:19.986Z,23.78
2023-03-30T21:26:49.676Z,23.63
2023-03-30T21:29:19.713Z,23.69
2023-03-30T21:31:49.352Z,23.71
2023-03-30T21:34:20.269Z,23.72
2023-03-30T21:36:50.092Z,23.54
2023-03-30T21:39:20.757Z,23.69
2023-03-30T21:41:50.494Z,23.71
2023-03-30T21:44:21.201Z,23.95
2023-03-30T21:46:50.915Z,23.87
2023-03-30T21:49:20.634Z,23.70
2023-03-30T21:51:50.385Z,23.87
2023-03-30T21:54:20.985Z,23.82
2023-03-30T21:56:50.712Z,23.77
2023-03-30T21:59:20.913Z,23.86
2023-03-30T22:01:50.654Z,23.98
2023-03-30T22:04:20.304Z,24.01
2023-03-30T22:06:50.023Z,23.95
2023-03-30T22:09:19.728Z,23.94
2023-03-30T22:11:54.554Z,23.90
2023-03-30T22:14:24.568Z,24.14
2023-03-30T22:16:54.289Z,23.96
2023-03-30T22:19:24.605Z,24.14
2023-03-30T22:21:54.446Z,23.83
2023-03-30T22:24:24.133Z,24.03
2023-03-30T22:26:54.157Z,24.00
2023-03-30T22:29:24.776Z,23.70
2023-03-30T22:31:57.270Z,23.74
2023-03-30T22:34:27.433Z,23.26
2023-03-30T22:36:57.094Z,23.58
2023-03-30T22:39:26.855Z,23.77
2023-03-30T22:41:56.634Z,23.72
2023-03-30T22:44:29.274Z,23.90
2023-03-30T22:46:59.046Z,23.78
2023-03-30T22:49:28.900Z,23.64
2023-03-30T22:52:03.864Z,23.70
2023-03-30T22:54:34.000Z,23.74
2023-03-30T22:57:03.772Z,23.79
2023-03-30T22:59:33.500Z,23.63
2023-03-30T23:02:03.179Z,23.78
2023-03-30T23:04:33.006Z,23.79
2023-03-30T23:07:05.678Z,22.68
2023-03-30T23:09:35.919Z,21.27
2023-03-30T23:12:06.117Z,20.29
2023-03-30T23:14:37.371Z,19.93
2023-03-30T23:17:07.098Z,19.48
2023-03-30T23:19:38.149Z,19.07
2023-03-30T23:22:08.349Z,19.26
2023-03-30T23:24:39.541Z,19.12
2023-03-30T23:27:12.909Z,18.87
2023-03-30T23:29:43.587Z,18.52
2023-03-30T23:32:33.780Z,18.23
2023-03-30T23:35:04.465Z,18.31
2023-03-30T23:37:38.473Z,18.09
2023-03-30T23:40:10.149Z,18.23
2023-03-30T23:42:43.718Z,18.13
2023-03-30T23:45:16.464Z,18.32
2023-03-30T23:47:51.855Z,18.10
2023-03-30T23:50:23.175Z,18.15
2023-03-30T23:52:53.177Z,18.33
2023-03-30T23:55:23.737Z,17.85
2023-03-30T23:57:53.344Z,17.87
